createdAt,value
2023-05-25T04:15:16.313Z,21.11
2023-05-25T04:16:16.269Z,21.15
2023-05-25T04:17:16.243Z,21.11
2023-05-25T04:18:16.253Z,21.09
2023-05-25T04:19:16.245Z,21.13
2023-05-25T04:20:16.274Z,21.21
2023-05-25T04:21:16.208Z,21.21
2023-05-25T04:22:16.202Z,21.23
2023-05-25T04:23:16.222Z,21.18
2023-05-25T04:24:16.185Z,21.23
2023-05-25T04:25:16.213Z,21.25
2023-05-25T04:26:16.200Z,21.30
2023-05-25T04:27:16.177Z,21.33
2023-05-25T04:28:16.197Z,21.25
2023-05-25T04:29:16.173Z,21.31
2023-05-25T04:30:16.188Z,21.33
2023-05-25T04:31:16.247Z,21.33
2023-05-25T04:32:16.199Z,21.37
2023-05-25T04:33:16.150Z,21.31
2023-05-25T04:34:16.171Z,21.46
2023-05-25T04:35:16.160Z,21.41
2023-05-25T04:36:16.151Z,21.43
2023-05-25T04:37:16.123Z,21.48
2023-05-25T04:38:16.125Z,21.53
2023-05-25T04:39:16.146Z,21.61
2023-05-25T04:40:16.145Z,21.49
2023-05-25T04:41:16.157Z,21.56
2023-05-25T04:42:16.112Z,21.51
2023-05-25T04:43:16.105Z,21.56
2023-05-25T04:44:16.123Z,21.66
2023-05-25T04:45:16.139Z,21.55
2023-05-25T04:46:16.123Z,21.66
2023-05-25T04:47:16.180Z,21.62
2023-05-25T04:48:16.094Z,21.64
2023-05-25T04:49:16.100Z,21.66
2023-05-25T04:50:16.104Z,21.70
2023-05-25T04:51:16.085Z,21.71
2023-05-25T04:52:16.106Z,21.74
2023-05-25T04:53:16.076Z,21.80
2023-05-25T04:54:16.096Z,21.86
2023-05-25T04:55:16.089Z,21.85
2023-05-25T04:56:16.087Z,21.80
2023-05-25T04:57:16.092Z,21.86
2023-05-25T04:58:16.052Z,21.85
2023-05-25T04:59:16.075Z,21.80
2023-05-25T05:00:16.083Z,21.86
2023-05-25T05:01:16.113Z,21.92
2023-05-25T05:02:16.049Z,21.89
2023-05-25T05:03:16.255Z,21.93
2023-05-25T05:04:16.047Z,21.94
2023-05-25T05:05:16.102Z,21.92
2023-05-25T05:06:16.055Z,22.02
2023-05-25T05:07:16.046Z,22.05
2023-05-25T05:08:16.027Z,22.05
2023-05-25T05:09:16.019Z,22.08
2023-05-25T05:10:16.052Z,22.08
2023-05-25T05:11:16.042Z,22.11
2023-05-25T05:12:16.042Z,22.15
2023-05-25T05:13:16.055Z,22.11
2023-05-25T05:14:16.040Z,22.09
2023-05-25T05:15:16.043Z,22.14
2023-05-25T05:16:16.174Z,22.16
2023-05-25T05:17:15.991Z,22.18
2023-05-25T05:18:16.003Z,22.07
2023-05-25T05:19:16.012Z,22.27
2023-05-25T05:20:16.041Z,22.26
2023-05-25T05:21:16.003Z,22.09
2023-05-25T05:22:16.124Z,22.20
2023-05-25T05:23:16.004Z,22.24
2023-05-25T05:24:16.038Z,22.29
2023-05-25T05:25:16.025Z,22.31
2023-05-25T05:26:16.020Z,22.31
2023-05-25T05:27:15.968Z,22.29
2023-05-25T05:28:16.005Z,22.22
2023-05-25T05:29:15.958Z,22.29
2023-05-25T05:30:15.953Z,22.29
2023-05-25T05:31:16.000Z,22.24
2023-05-25T05:32:15.970Z,22.23
2023-05-25T05:33:16.070Z,22.24
2023-05-25T05:34:15.949Z,22.30
2023-05-25T05:35:15.949Z,22.33
2023-05-25T05:36:16.033Z,22.34
2023-05-25T05:37:15.938Z,22.29
2023-05-25T05:38:15.939Z,22.39
2023-05-25T05:39:15.930Z,22.38
2023-05-25T05:40:15.945Z,22.42
2023-05-25T05:41:15.945Z,22.38
2023-05-25T05:42:16.206Z,22.41
2023-05-25T05:43:15.910Z,22.46
2023-05-25T05:44:15.914Z,22.38
2023-05-25T05:45:15.923Z,22.39
2023-05-25T05:46:15.989Z,22.48
2023-05-25T05:47:15.919Z,22.46
2023-05-25T05:48:15.919Z,22.44
2023-05-25T05:49:15.932Z,22.45
2023-05-25T05:50:15.922Z,22.46
2023-05-25T05:51:15.914Z,22.49
2023-05-25T05:52:15.917Z,22.44
2023-05-25T05:53:16.028Z,22.46
2023-05-25T05:54:15.903Z,22.42
2023-05-25T05:55:15.963Z,22.54
2023-05-25T05:56:15.909Z,22.49
2023-05-25T05:57:15.909Z,22.46
2023-05-25T05:58:15.898Z,22.45
2023-05-25T05:59:15.917Z,22.48
2023-05-25T06:00:15.886Z,22.48
2023-05-25T06:01:15.874Z,22.52
2023-05-25T06:02:16.016Z,22.51
2023-05-25T06:03:15.986Z,22.42
2023-05-25T06:04:16.009Z,22.51
2023-05-25T06:05:15.990Z,22.48
2023-05-25T06:06:15.926Z,22.48
2023-05-25T06:07:15.961Z,22.45
2023-05-25T06:08:15.903Z,22.48
2023-05-25T06:09:15.866Z,22.48
2023-05-25T06:10:15.825Z,22.44
2023-05-25T06:11:15.841Z,22.48
2023-05-25T06:12:15.900Z,22.46
2023-05-25T06:13:15.833Z,22.54
2023-05-25T06:14:15.882Z,22.51
2023-05-25T06:15:15.820Z,22.49
2023-05-25T06:16:15.960Z,22.51
2023-05-25T06:17:16.455Z,22.48
2023-05-25T06:18:15.818Z,22.45
2023-05-25T06:19:15.820Z,22.63
2023-05-25T06:20:15.909Z,22.59
2023-05-25T06:21:15.801Z,22.57
2023-05-25T06:22:15.850Z,22.59
2023-05-25T06:23:15.919Z,22.66
2023-05-25T06:24:15.812Z,22.63
2023-05-25T06:25:15.807Z,22.60
2023-05-25T06:26:15.892Z,22.61
2023-05-25T06:27:15.865Z,22.63
2023-05-25T06:28:15.844Z,22.59
2023-05-25T06:29:17.210Z,22.60
2023-05-25T06:30:16.152Z,22.60
2023-05-25T06:31:15.818Z,22.71
2023-05-25T06:32:15.873Z,22.67
2023-05-25T06:33:15.831Z,22.76
2023-05-25T06:34:15.783Z,22.75
2023-05-25T06:35:15.760Z,22.70
2023-05-25T06:36:16.101Z,22.82
2023-05-25T06:37:15.770Z,22.84
2023-05-25T06:38:15.778Z,22.82
2023-05-25T06:39:15.875Z,22.82
2023-05-25T06:40:15.764Z,22.86
2023-05-25T06:41:15.861Z,22.82
2023-05-25T06:42:15.753Z,22.81
2023-05-25T06:43:15.793Z,22.89
2023-05-25T06:44:15.731Z,22.79
2023-05-25T06:45:15.763Z,22.91
2023-05-25T06:46:15.844Z,22.89
2023-05-25T06:48:15.792Z,22.92
2023-05-25T06:49:15.741Z,22.91
2023-05-25T06:50:15.744Z,22.86
2023-05-25T06:51:15.766Z,22.88
2023-05-25T06:52:15.739Z,22.92
2023-05-25T06:53:15.780Z,22.96
2023-05-25T06:54:15.738Z,22.96
2023-05-25T06:55:15.776Z,22.89
2023-05-25T06:56:15.831Z,22.91
2023-05-25T06:57:15.709Z,22.88
2023-05-25T06:58:15.793Z,22.89
2023-05-25T06:59:15.777Z,22.91
2023-05-25T07:00:15.716Z,22.96
2023-05-25T07:01:15.738Z,22.94
2023-05-25T07:02:15.734Z,22.89
2023-05-25T07:03:15.703Z,22.97
2023-05-25T07:04:15.704Z,22.91
2023-05-25T07:05:15.738Z,22.92
2023-05-25T07:06:15.705Z,22.99
2023-05-25T07:09:48.290Z,23.06
2023-05-25T07:10:50.177Z,23.00
2023-05-25T07:11:48.170Z,23.04
2023-05-25T07:12:48.275Z,23.04
2023-05-25T07:13:48.180Z,23.06
2023-05-25T07:14:48.188Z,23.03
2023-05-25T07:15:48.512Z,22.99
2023-05-25T07:16:48.255Z,23.07
2023-05-25T07:17:48.216Z,23.07
2023-05-25T07:18:48.170Z,23.15
2023-05-25T07:19:48.160Z,23.07
2023-05-25T07:20:48.256Z,23.07
2023-05-25T07:21:48.220Z,23.18
2023-05-25T07:22:48.148Z,23.15
2023-05-25T07:23:48.152Z,23.21
2023-05-25T07:24:48.149Z,23.28
2023-05-25T07:25:48.143Z,23.32
2023-05-25T07:26:48.184Z,23.37
2023-05-25T07:27:48.170Z,23.38
2023-05-25T07:28:48.185Z,23.44
2023-05-25T07:29:48.188Z,23.40
2023-05-25T07:30:48.213Z,23.40
2023-05-25T07:31:48.285Z,23.35
2023-05-25T07:32:48.201Z,23.38
2023-05-25T07:33:48.201Z,23.42
2023-05-25T07:34:48.128Z,23.38
2023-05-25T07:35:48.198Z,23.37
2023-05-25T07:36:48.154Z,23.42
2023-05-25T07:37:48.173Z,23.41
2023-05-25T07:38:48.184Z,23.41
2023-05-25T07:39:48.150Z,23.47
2023-05-25T07:40:48.132Z,23.42
2023-05-25T07:41:48.390Z,23.47
2023-05-25T07:42:48.123Z,23.47
2023-05-25T07:43:48.256Z,23.56
2023-05-25T07:44:48.120Z,23.52
2023-05-25T07:45:48.185Z,23.59
2023-05-25T07:46:48.130Z,23.53
2023-05-25T07:47:48.154Z,23.53
2023-05-25T07:48:48.119Z,23.55
2023-05-25T07:49:48.108Z,23.60
2023-05-25T07:50:48.184Z,23.56
2023-05-25T07:51:48.205Z,23.57
2023-05-25T07:52:48.130Z,23.63
2023-05-25T07:53:48.216Z,23.66
2023-05-25T07:54:48.134Z,23.66
2023-05-25T07:55:48.090Z,23.63
2023-05-25T07:56:48.270Z,23.62
2023-05-25T07:57:48.430Z,23.66
2023-05-25T07:58:48.203Z,23.66
2023-05-25T07:59:48.080Z,23.66
2023-05-25T08:00:48.089Z,23.63
2023-05-25T08:01:48.165Z,23.71
2023-05-25T08:02:48.215Z,23.74
2023-05-25T08:03:50.061Z,23.71
2023-05-25T08:04:48.182Z,23.63
2023-05-25T08:05:48.106Z,23.66
2023-05-25T08:06:48.111Z,23.62
2023-05-25T08:07:48.142Z,23.67
2023-05-25T08:08:48.047Z,23.66
2023-05-25T08:09:48.087Z,23.71
2023-05-25T08:10:48.055Z,23.67
2023-05-25T08:11:48.100Z,23.66
2023-05-25T08:12:50.195Z,23.66
2023-05-25T08:13:48.038Z,23.64
2023-05-25T08:14:48.155Z,23.70
2023-05-25T08:15:48.062Z,23.71
2023-05-25T08:16:48.119Z,23.70
2023-05-25T08:17:48.053Z,23.75
2023-05-25T08:18:48.072Z,23.77
2023-05-25T08:19:48.090Z,23.70
2023-05-25T08:20:48.097Z,23.77
2023-05-25T08:21:48.033Z,23.72
2023-05-25T08:22:48.026Z,23.77
2023-05-25T08:23:48.038Z,23.75
2023-05-25T08:24:48.081Z,23.75
2023-05-25T08:25:49.076Z,23.75
2023-05-25T08:27:48.025Z,23.78
2023-05-25T08:28:48.010Z,23.74
2023-05-25T08:29:48.004Z,23.75
2023-05-25T08:30:48.021Z,23.82
2023-05-25T08:31:48.018Z,23.82
2023-05-25T08:32:48.225Z,23.81
2023-05-25T08:33:48.004Z,23.79
2023-05-25T08:34:47.998Z,23.81
2023-05-25T08:35:47.993Z,23.77
2023-05-25T08:36:48.022Z,23.90
2023-05-25T08:37:47.998Z,23.94
2023-05-25T08:38:48.060Z,23.90
2023-05-25T08:39:48.016Z,23.93
2023-05-25T08:40:48.007Z,23.94
2023-05-25T08:41:48.052Z,23.92
2023-05-25T08:42:48.014Z,23.92
2023-05-25T08:43:48.030Z,23.99
2023-05-25T08:44:47.985Z,23.97
2023-05-25T08:45:48.030Z,23.93
2023-05-25T08:46:47.988Z,23.94
2023-05-25T08:47:48.021Z,24.02
2023-05-25T08:48:48.092Z,24.00
2023-05-25T08:49:48.084Z,23.99
2023-05-25T08:50:47.982Z,23.99
2023-05-25T08:51:47.998Z,23.97
2023-05-25T08:52:48.002Z,23.94
2023-05-25T08:53:48.009Z,24.04
2023-05-25T08:54:47.977Z,23.99
2023-05-25T08:55:48.004Z,24.00
2023-05-25T08:56:47.972Z,24.08
2023-05-25T08:57:47.974Z,24.11
2023-05-25T08:58:47.975Z,24.09
2023-05-25T08:59:47.994Z,24.04
2023-05-25T09:00:47.997Z,24.07
2023-05-25T09:01:47.982Z,24.07
2023-05-25T09:02:48.192Z,24.09
2023-05-25T09:03:48.090Z,24.08
2023-05-25T09:04:47.972Z,24.08
2023-05-25T09:05:47.975Z,24.09
2023-05-25T09:06:57.105Z,24.08
2023-05-25T09:07:47.983Z,24.04
2023-05-25T09:08:47.947Z,23.99
2023-05-25T09:09:47.983Z,24.00
2023-05-25T09:10:47.968Z,23.99
2023-05-25T09:12:48.043Z,24.03
2023-05-25T09:13:47.947Z,24.00
2023-05-25T09:14:48.205Z,23.97
2023-05-25T09:15:47.942Z,24.03
2023-05-25T09:16:48.130Z,24.00
2023-05-25T09:17:47.978Z,23.93
2023-05-25T09:18:47.995Z,24.03
2023-05-25T09:19:47.913Z,23.93
2023-05-25T09:20:48.271Z,23.89
2023-05-25T09:21:47.942Z,23.93
2023-05-25T09:22:47.941Z,23.99
2023-05-25T09:23:47.953Z,24.04
2023-05-25T09:24:47.911Z,23.99
2023-05-25T09:25:48.113Z,23.97
2023-05-25T09:26:48.332Z,24.09
2023-05-25T09:27:48.128Z,24.07
2023-05-25T09:28:47.971Z,24.04
2023-05-25T09:29:47.937Z,24.08
2023-05-25T09:30:48.253Z,24.08
2023-05-25T09:31:47.954Z,24.14
2023-05-25T09:32:47.924Z,24.09
2023-05-25T09:33:47.882Z,24.12
2023-05-25T09:34:47.964Z,24.15
2023-05-25T09:35:47.893Z,24.24
2023-05-25T09:39:20.776Z,24.26
2023-05-25T09:40:20.480Z,24.24
2023-05-25T09:41:20.474Z,24.27
2023-05-25T09:42:20.672Z,24.24
2023-05-25T09:43:36.453Z,24.27
2023-05-25T09:44:20.578Z,24.26
2023-05-25T09:45:20.536Z,24.27
2023-05-25T09:46:21.032Z,24.26
2023-05-25T09:47:20.541Z,24.33
2023-05-25T09:48:20.511Z,24.29
2023-05-25T09:49:20.489Z,24.32
2023-05-25T09:50:20.529Z,24.29
2023-05-25T09:51:20.519Z,24.39
2023-05-25T09:52:20.462Z,24.32
2023-05-25T09:53:21.258Z,24.27
2023-05-25T09:54:20.455Z,24.29
2023-05-25T09:55:20.503Z,24.32
2023-05-25T09:56:20.467Z,24.33
2023-05-25T09:57:20.474Z,24.34
2023-05-25T09:58:20.467Z,24.32
2023-05-25T09:59:20.452Z,24.45
2023-05-25T10:00:20.503Z,24.42
2023-05-25T10:01:20.508Z,24.40
2023-05-25T10:02:20.450Z,24.39
2023-05-25T10:03:20.492Z,24.40
2023-05-25T10:04:20.489Z,24.51
2023-05-25T10:05:20.454Z,24.52
2023-05-25T10:06:20.524Z,24.49
2023-05-25T10:07:20.464Z,24.45
2023-05-25T10:08:20.469Z,24.44
2023-05-25T10:09:20.501Z,24.61
2023-05-25T10:10:20.449Z,24.56
2023-05-25T10:11:20.446Z,24.55
2023-05-25T10:12:20.452Z,24.59
2023-05-25T10:13:20.478Z,24.59
2023-05-25T10:14:20.439Z,24.66
2023-05-25T10:15:20.452Z,24.66
2023-05-25T10:16:20.491Z,24.71
2023-05-25T10:17:20.461Z,24.74
2023-05-25T10:18:20.531Z,24.69
2023-05-25T10:29:37.292Z,24.92
2023-05-25T10:30:37.263Z,24.94
2023-05-25T10:31:51.944Z,24.96
2023-05-25T10:32:37.221Z,24.96
2023-05-25T10:33:37.235Z,24.92
2023-05-25T10:34:37.197Z,24.94
2023-05-25T10:36:09.114Z,24.87
2023-05-25T10:36:37.269Z,24.87
2023-05-25T10:37:37.200Z,24.87
2023-05-25T10:38:37.195Z,24.82
2023-05-25T10:39:37.189Z,24.86
2023-05-25T10:40:37.239Z,24.86
2023-05-25T10:41:37.248Z,24.89
2023-05-25T10:43:37.168Z,24.90
2023-05-25T10:44:37.165Z,24.96
2023-05-25T10:45:37.239Z,25.02
2023-05-25T10:46:37.273Z,25.07
2023-05-25T10:47:37.257Z,25.09
2023-05-25T10:48:37.223Z,25.08
2023-05-25T10:49:37.231Z,25.11
2023-05-25T10:50:37.184Z,25.15
2023-05-25T10:51:37.189Z,25.05
2023-05-25T10:52:37.171Z,25.20
2023-05-25T10:53:37.199Z,25.11
2023-05-25T10:54:37.234Z,25.24
2023-05-25T10:55:37.152Z,25.22
2023-05-25T10:56:37.229Z,25.22
2023-05-25T10:57:37.154Z,25.32
2023-05-25T10:58:37.166Z,25.38
2023-05-25T10:59:37.179Z,25.39
2023-05-25T11:00:37.248Z,25.33
2023-05-25T11:01:37.304Z,25.33
2023-05-25T11:02:37.350Z,25.45
2023-05-25T11:03:37.206Z,25.48
2023-05-25T11:04:37.347Z,25.47
2023-05-25T11:05:37.216Z,25.56
2023-05-25T11:06:37.195Z,25.56
2023-05-25T11:07:37.155Z,25.54
2023-05-25T11:08:37.332Z,25.52
2023-05-25T11:09:37.165Z,25.59
2023-05-25T11:10:37.176Z,25.70
2023-05-25T11:11:37.195Z,25.69
2023-05-25T11:12:37.220Z,25.69
2023-05-25T11:13:38.919Z,25.69
2023-05-25T11:14:37.250Z,25.66
2023-05-25T11:15:37.252Z,25.66
2023-05-25T11:16:37.216Z,25.64
2023-05-25T11:17:37.217Z,25.75
2023-05-25T11:18:37.154Z,25.69
2023-05-25T11:19:37.248Z,25.78
2023-05-25T11:20:37.179Z,25.71
2023-05-25T11:21:37.200Z,25.71
2023-05-25T11:22:37.153Z,25.70
2023-05-25T11:23:37.158Z,25.81
2023-05-25T11:24:37.169Z,25.84
2023-05-25T11:25:37.359Z,25.79
2023-05-25T11:26:37.339Z,25.85
2023-05-25T11:27:37.215Z,25.86
2023-05-25T11:28:37.204Z,25.85
2023-05-25T11:29:37.212Z,25.85
2023-05-25T11:30:37.281Z,25.84
2023-05-25T11:31:41.511Z,25.86
2023-05-25T11:32:37.192Z,25.84
2023-05-25T11:33:37.268Z,25.88
2023-05-25T11:34:37.242Z,25.89
2023-05-25T11:35:37.265Z,25.86
2023-05-25T11:36:37.220Z,25.88
2023-05-25T11:37:37.889Z,25.89
2023-05-25T11:38:37.161Z,26.00
2023-05-25T11:39:37.167Z,26.00
2023-05-25T11:40:40.236Z,26.15
2023-05-25T11:41:37.301Z,26.17
2023-05-25T11:42:37.221Z,26.30
2023-05-25T11:43:37.188Z,26.27
2023-05-25T11:44:37.234Z,26.34
2023-05-25T11:45:37.271Z,26.35
2023-05-25T11:46:37.211Z,26.42
2023-05-25T11:47:38.202Z,26.49
2023-05-25T11:48:37.189Z,26.45
2023-05-25T11:49:37.311Z,26.49
2023-05-25T11:50:37.211Z,26.50
2023-05-25T11:51:37.183Z,26.50
2023-05-25T11:52:37.182Z,26.50
2023-05-25T11:53:37.177Z,26.53
2023-05-25T11:54:37.178Z,26.44
2023-05-25T11:55:37.173Z,26.45
2023-05-25T11:56:37.175Z,26.38
2023-05-25T11:57:37.203Z,26.38
2023-05-25T11:58:37.150Z,26.35
2023-05-25T11:59:37.158Z,26.42
2023-05-25T12:00:37.167Z,26.38
2023-05-25T12:01:37.162Z,26.31
2023-05-25T12:02:37.240Z,26.38
2023-05-25T12:03:37.273Z,26.49
2023-05-25T12:04:37.389Z,26.61
2023-05-25T12:05:37.480Z,26.78
2023-05-25T12:06:38.088Z,26.82
2023-05-25T12:07:37.289Z,26.90
2023-05-25T12:08:37.273Z,26.79
2023-05-25T12:09:37.237Z,26.81
2023-05-25T12:10:37.200Z,26.71
2023-05-25T12:11:37.171Z,26.71
2023-05-25T12:12:37.214Z,26.59
2023-05-25T12:13:37.195Z,26.63
2023-05-25T12:14:37.156Z,26.61
2023-05-25T12:15:37.338Z,26.54
2023-05-25T12:16:37.263Z,26.54
2023-05-25T12:17:37.368Z,26.53
2023-05-25T12:18:37.159Z,26.45
2023-05-25T12:19:37.185Z,26.44
2023-05-25T12:20:37.383Z,26.42
2023-05-25T12:21:37.345Z,26.39
2023-05-25T12:22:37.274Z,26.31
2023-05-25T12:23:37.158Z,26.31
2023-05-25T12:24:37.182Z,26.38
2023-05-25T12:25:49.734Z,26.34
2023-05-25T12:26:37.156Z,26.30
2023-05-25T12:27:37.176Z,26.37
2023-05-25T12:28:37.178Z,26.38
2023-05-25T12:29:37.266Z,26.34
2023-05-25T12:30:37.247Z,26.38
2023-05-25T12:31:37.187Z,26.37
2023-05-25T12:32:37.189Z,26.49
2023-05-25T12:33:37.164Z,26.44
2023-05-25T12:34:37.166Z,26.61
2023-05-25T12:35:37.159Z,26.84
2023-05-25T12:36:37.212Z,27.01
2023-05-25T12:37:37.221Z,27.30
2023-05-25T12:38:37.184Z,27.37
2023-05-25T12:39:37.194Z,27.41
2023-05-25T12:40:37.209Z,27.46
2023-05-25T12:41:37.223Z,27.48
2023-05-25T12:42:37.205Z,27.45
2023-05-25T12:43:37.194Z,27.49
2023-05-25T12:44:37.206Z,27.42
2023-05-25T12:45:37.190Z,27.51
2023-05-25T12:46:37.234Z,27.51
2023-05-25T12:47:37.231Z,27.46
2023-05-25T12:48:37.174Z,27.52
2023-05-25T12:49:37.496Z,27.45
2023-05-25T12:50:37.502Z,27.37
2023-05-25T12:51:37.234Z,27.42
2023-05-25T12:52:37.203Z,27.42
2023-05-25T12:53:37.219Z,27.51
2023-05-25T12:54:37.631Z,27.42
2023-05-25T12:55:37.206Z,27.49
2023-05-25T12:56:37.215Z,27.74
2023-05-25T12:57:37.282Z,28.05
2023-05-25T12:58:37.243Z,28.12
2023-05-25T12:59:37.217Z,28.33
2023-05-25T13:00:37.240Z,28.55
2023-05-25T13:01:37.342Z,28.57
2023-05-25T13:02:37.273Z,28.46
2023-05-25T13:03:37.247Z,28.55
2023-05-25T13:04:37.409Z,28.49
2023-05-25T13:05:37.450Z,28.49
2023-05-25T13:08:09.867Z,28.41
2023-05-25T13:10:09.919Z,28.57
2023-05-25T13:11:09.924Z,28.39
2023-05-25T13:12:09.950Z,28.72
2023-05-25T13:13:09.863Z,28.82
2023-05-25T13:14:09.871Z,28.75
2023-05-25T13:15:09.891Z,28.64
2023-05-25T13:16:09.895Z,28.73
2023-05-25T13:18:09.917Z,29.06
2023-05-25T13:19:09.872Z,29.42
2023-05-25T13:20:09.898Z,29.70
2023-05-25T13:21:09.941Z,30.03
2023-05-25T13:22:09.903Z,30.16
2023-05-25T13:23:09.902Z,30.45
2023-05-25T13:24:09.889Z,30.67
2023-05-25T13:25:09.888Z,30.56
2023-05-25T13:26:10.014Z,30.56
2023-05-25T13:27:09.928Z,30.59
2023-05-25T13:28:09.939Z,30.57
2023-05-25T13:29:09.904Z,30.78
2023-05-25T13:30:09.933Z,31.00
2023-05-25T13:31:09.944Z,31.18
2023-05-25T13:32:09.948Z,31.45
2023-05-25T13:33:09.947Z,31.56
2023-05-25T13:34:09.932Z,31.71
2023-05-25T13:35:09.960Z,31.82
2023-05-25T13:36:10.022Z,32.06
2023-05-25T13:37:09.925Z,32.19
2023-05-25T13:38:10.039Z,32.24
2023-05-25T13:39:09.928Z,32.46
2023-05-25T13:40:09.961Z,32.52
2023-05-25T13:41:09.969Z,32.76
2023-05-25T13:42:09.985Z,32.74
2023-05-25T13:43:10.009Z,32.80
2023-05-25T13:44:10.271Z,32.87
2023-05-25T13:45:10.192Z,33.05
2023-05-25T13:46:21.826Z,33.09
2023-05-25T13:47:10.398Z,33.06
2023-05-25T13:48:10.154Z,33.09
2023-05-25T13:49:10.112Z,32.76
2023-05-25T13:50:10.009Z,32.53
2023-05-25T13:51:10.023Z,32.35
2023-05-25T13:52:10.000Z,32.15
2023-05-25T13:53:10.040Z,32.01
2023-05-25T13:54:10.037Z,32.06
2023-05-25T13:55:10.014Z,32.05
2023-05-25T13:56:10.020Z,31.90
2023-05-25T13:57:10.029Z,31.77
2023-05-25T13:58:10.052Z,31.72
2023-05-25T13:59:10.054Z,31.81
2023-05-25T14:00:10.037Z,31.87
2023-05-25T14:01:10.117Z,31.70
2023-05-25T14:02:10.140Z,31.68
2023-05-25T14:03:10.144Z,31.91
2023-05-25T14:04:10.126Z,32.08
2023-05-25T14:05:10.059Z,32.25
2023-05-25T14:06:10.114Z,32.47
2023-05-25T14:07:10.078Z,32.61
2023-05-25T14:08:10.053Z,32.67
2023-05-25T14:09:10.236Z,32.84
2023-05-25T14:10:10.378Z,32.96
2023-05-25T14:11:10.078Z,32.98
2023-05-25T14:12:10.933Z,33.08
2023-05-25T14:13:10.078Z,33.31
2023-05-25T14:14:23.187Z,33.41
2023-05-25T14:15:10.103Z,33.46
2023-05-25T14:16:10.152Z,33.53
2023-05-25T14:17:10.179Z,33.62
2023-05-25T14:18:10.183Z,33.55
2023-05-25T14:19:10.129Z,33.62
2023-05-25T14:20:10.199Z,33.69
2023-05-25T14:21:10.119Z,33.77
2023-05-25T14:22:14.187Z,33.81
2023-05-25T14:23:11.877Z,33.96
2023-05-25T14:24:10.144Z,33.96
2023-05-25T14:25:10.152Z,34.11
2023-05-25T14:26:10.149Z,34.12
2023-05-25T14:27:10.156Z,34.17
2023-05-25T14:28:10.160Z,34.15
2023-05-25T14:29:12.813Z,34.06
2023-05-25T14:30:10.201Z,33.92
2023-05-25T14:31:10.271Z,33.95
2023-05-25T14:32:10.208Z,34.12
2023-05-25T14:33:10.255Z,34.06
2023-05-25T14:34:10.190Z,33.92
2023-05-25T14:35:10.200Z,33.95
2023-05-25T14:36:10.212Z,34.02
2023-05-25T14:37:10.215Z,34.08
2023-05-25T14:38:10.248Z,34.08
2023-05-25T14:39:13.837Z,34.11
2023-05-25T14:40:10.235Z,34.15
2023-05-25T14:41:10.240Z,34.21
2023-05-25T14:42:10.252Z,34.21
2023-05-25T14:43:10.260Z,34.32
2023-05-25T14:44:10.252Z,34.34
2023-05-25T14:45:12.079Z,34.27
2023-05-25T14:46:10.306Z,34.27
2023-05-25T14:47:10.347Z,34.27
2023-05-25T14:48:16.616Z,34.30
2023-05-25T14:49:10.305Z,34.33
2023-05-25T14:50:10.290Z,34.19
2023-05-25T14:51:10.305Z,34.14
2023-05-25T14:52:10.303Z,33.97
2023-05-25T14:53:10.368Z,33.80
2023-05-25T14:54:10.335Z,33.83
2023-05-25T14:55:10.334Z,33.83
2023-05-25T14:56:11.394Z,33.90
2023-05-25T14:57:10.362Z,33.89
2023-05-25T14:58:10.360Z,33.89
2023-05-25T14:59:10.405Z,33.84
2023-05-25T15:00:10.360Z,33.87
2023-05-25T15:01:10.372Z,33.90
2023-05-25T15:02:10.463Z,33.87
2023-05-25T15:03:10.539Z,33.85
2023-05-25T15:04:10.459Z,33.80
2023-05-25T15:05:10.384Z,33.75
2023-05-25T15:06:10.396Z,33.80
2023-05-25T15:07:12.279Z,33.84
2023-05-25T15:08:10.417Z,33.81
2023-05-25T15:09:10.475Z,33.65
2023-05-25T15:10:10.443Z,33.71
2023-05-25T15:11:10.423Z,33.63
2023-05-25T15:12:10.461Z,33.58
2023-05-25T15:13:12.545Z,33.58
2023-05-25T15:14:10.445Z,33.48
2023-05-25T15:15:10.457Z,33.50
2023-05-25T15:16:10.521Z,33.44
2023-05-25T15:17:10.485Z,33.36
2023-05-25T15:18:10.548Z,33.32
2023-05-25T15:19:12.642Z,33.23
2023-05-25T15:20:10.570Z,33.12
2023-05-25T15:21:10.493Z,33.06
2023-05-25T15:22:10.478Z,33.02
2023-05-25T15:23:10.570Z,32.94
2023-05-25T15:24:10.502Z,32.72
2023-05-25T15:25:10.522Z,32.65
2023-05-25T15:26:10.502Z,32.47
2023-05-25T15:27:10.513Z,32.35
2023-05-25T15:28:10.513Z,32.23
2023-05-25T15:29:10.514Z,32.15
2023-05-25T15:30:10.522Z,32.09
2023-05-25T15:31:10.558Z,31.97
2023-05-25T15:32:10.609Z,31.86
2023-05-25T15:33:10.616Z,31.72
2023-05-25T15:34:10.574Z,31.58
2023-05-25T15:35:10.544Z,31.44
2023-05-25T15:36:10.561Z,31.36
2023-05-25T15:37:12.919Z,31.28
2023-05-25T15:38:10.603Z,31.16
2023-05-25T15:39:10.563Z,31.06
2023-05-25T15:40:10.580Z,30.93
2023-05-25T15:41:10.577Z,30.91
2023-05-25T15:42:10.577Z,30.71
2023-05-25T15:43:10.594Z,30.67
2023-05-25T15:44:10.603Z,30.49
2023-05-25T15:45:10.604Z,30.47
2023-05-25T15:46:10.679Z,30.31
2023-05-25T15:47:10.588Z,30.25
2023-05-25T15:48:10.630Z,30.14
2023-05-25T15:49:10.614Z,29.98
2023-05-25T15:50:10.624Z,29.92
2023-05-25T15:51:10.607Z,29.84
2023-05-25T15:52:10.618Z,29.77
2023-05-25T15:53:10.615Z,29.65
2023-05-25T15:54:13.445Z,29.55
2023-05-25T15:55:10.720Z,29.55
2023-05-25T15:56:10.624Z,29.40
2023-05-25T15:57:10.643Z,29.30
2023-05-25T15:58:10.635Z,29.20
2023-05-25T15:59:10.643Z,29.06
2023-05-25T16:00:10.653Z,29.10
2023-05-25T16:01:13.195Z,28.97
2023-05-25T16:02:10.724Z,28.92
2023-05-25T16:03:10.686Z,28.79
2023-05-25T16:04:10.700Z,28.75
2023-05-25T16:05:10.674Z,28.63
2023-05-25T16:06:10.743Z,28.61
2023-05-25T16:07:10.653Z,28.46
2023-05-25T16:08:10.661Z,28.39
2023-05-25T16:09:10.681Z,28.27
2023-05-25T16:10:10.686Z,28.24
2023-05-25T16:11:10.655Z,28.17
2023-05-25T16:12:10.667Z,28.08
2023-05-25T16:13:10.654Z,28.09
2023-05-25T16:14:10.666Z,28.03
2023-05-25T16:15:10.750Z,27.91
2023-05-25T16:16:10.727Z,27.87
2023-05-25T16:17:10.673Z,27.84
2023-05-25T16:28:48.483Z,27.04
2023-05-25T16:29:48.415Z,26.96
2023-05-25T16:30:48.410Z,26.97
2023-05-25T16:31:48.446Z,26.90
2023-05-25T16:32:48.503Z,26.81
2023-05-25T16:33:48.402Z,26.76
2023-05-25T16:34:48.400Z,26.72
2023-05-25T16:35:48.406Z,26.63
2023-05-25T16:36:48.389Z,26.60
2023-05-25T16:37:48.418Z,26.54
2023-05-25T16:38:48.399Z,26.47
2023-05-25T16:39:48.418Z,26.52
2023-05-25T16:40:48.397Z,26.35
2023-05-25T16:41:50.781Z,26.41
2023-05-25T16:42:48.435Z,26.34
2023-05-25T16:43:48.413Z,26.26
2023-05-25T16:44:48.406Z,26.24
2023-05-25T16:45:48.621Z,26.30
2023-05-25T16:46:48.400Z,26.16
2023-05-25T16:47:48.448Z,26.16
2023-05-25T16:48:48.386Z,26.12
2023-05-25T16:49:48.408Z,25.96
2023-05-25T16:50:48.389Z,26.01
2023-05-25T16:51:48.396Z,25.99
2023-05-25T16:52:48.395Z,25.93
2023-05-25T16:53:48.387Z,25.85
2023-05-25T16:54:48.380Z,25.88
2023-05-25T16:55:48.390Z,25.84
2023-05-25T16:56:48.398Z,25.79
2023-05-25T16:57:48.403Z,25.82
2023-05-25T16:58:48.372Z,25.76
2023-05-25T16:59:48.380Z,25.75
2023-05-25T17:00:48.414Z,25.78
2023-05-25T17:01:48.427Z,25.67
2023-05-25T17:02:48.478Z,25.62
2023-05-25T17:03:48.491Z,25.59
2023-05-25T17:04:48.397Z,25.66
2023-05-25T17:05:48.379Z,25.51
2023-05-25T17:06:48.377Z,25.57
2023-05-25T17:07:48.423Z,25.45
2023-05-25T17:08:48.369Z,25.45
2023-05-25T17:09:48.415Z,25.42
2023-05-25T17:10:48.372Z,25.34
2023-05-25T17:11:48.370Z,25.34
2023-05-25T17:12:48.368Z,25.32
2023-05-25T17:13:48.383Z,25.32
2023-05-25T17:14:48.391Z,25.33
2023-05-25T17:15:48.617Z,25.34
2023-05-25T17:16:48.486Z,25.32
2023-05-25T17:17:48.439Z,25.24
2023-05-25T17:18:48.364Z,25.24
2023-05-25T17:19:48.387Z,25.17
2023-05-25T17:20:48.424Z,25.22
2023-05-25T17:21:48.415Z,25.12
2023-05-25T17:22:48.389Z,25.15
2023-05-25T17:23:48.367Z,25.09
2023-05-25T17:24:48.367Z,25.12
2023-05-25T17:25:48.392Z,25.08
2023-05-25T17:26:48.353Z,25.08
2023-05-25T17:27:48.371Z,25.04
2023-05-25T17:28:48.346Z,25.05
2023-05-25T17:29:48.358Z,25.05
2023-05-25T17:30:48.753Z,25.07
2023-05-25T17:31:48.953Z,24.97
2023-05-25T17:32:48.479Z,24.93
2023-05-25T17:33:48.356Z,24.96
2023-05-25T17:34:48.362Z,24.92
2023-05-25T17:35:48.354Z,24.85
2023-05-25T17:36:48.338Z,24.82
2023-05-25T17:37:48.358Z,24.85
2023-05-25T17:38:48.363Z,24.74
2023-05-25T17:39:48.352Z,24.77
2023-05-25T17:40:50.081Z,24.77